sensor_id;sensor_type;location;lat;lon;timestamp;temperature;humidity
1704;DHT22;849;48.780;9.216;2024-03-29T00:02:30;10.80;60.00
1704;DHT22;849;48.780;9.216;2024-03-29T00:05:14;10.80;61.30
1704;DHT22;849;48.780;9.216;2024-03-29T00:07:59;10.80;60.10
1704;DHT22;849;48.780;9.216;2024-03-29T00:10:43;10.80;59.60
1704;DHT22;849;48.780;9.216;2024-03-29T00:13:30;10.90;59.80
1704;DHT22;849;48.780;9.216;2024-03-29T00:16:14;10.90;59.50
1704;DHT22;849;48.780;9.216;2024-03-29T00:18:58;10.90;59.70
1704;DHT22;849;48.780;9.216;2024-03-29T00:21:43;10.90;60.10
1704;DHT22;849;48.780;9.216;2024-03-29T00:24:27;10.90;59.80
1704;DHT22;849;48.780;9.216;2024-03-29T00:27:11;10.90;59.90
1704;DHT22;849;48.780;9.216;2024-03-29T00:29:55;11.00;60.20
1704;DHT22;849;48.780;9.216;2024-03-29T00:32:39;11.00;61.70
1704;DHT22;849;48.780;9.216;2024-03-29T00:35:24;11.00;64.40
1704;DHT22;849;48.780;9.216;2024-03-29T00:38:08;11.00;64.30
1704;DHT22;849;48.780;9.216;2024-03-29T00:40:52;11.00;64.00
1704;DHT22;849;48.780;9.216;2024-03-29T00:43:36;10.90;62.20
1704;DHT22;849;48.780;9.216;2024-03-29T00:46:20;10.90;61.70
1704;DHT22;849;48.780;9.216;2024-03-29T00:49:05;11.00;62.80
1704;DHT22;849;48.780;9.216;2024-03-29T00:51:49;11.00;62.80
1704;DHT22;849;48.780;9.216;2024-03-29T00:54:33;10.90;62.00
1704;DHT22;849;48.780;9.216;2024-03-29T00:57:17;10.90;61.20
1704;DHT22;849;48.780;9.216;2024-03-29T01:00:01;10.90;61.60
1704;DHT22;849;48.780;9.216;2024-03-29T01:02:47;10.80;61.40
1704;DHT22;849;48.780;9.216;2024-03-29T01:05:31;10.90;61.70
1704;DHT22;849;48.780;9.216;2024-03-29T01:08:16;11.00;63.20
1704;DHT22;849;48.780;9.216;2024-03-29T01:11:00;11.00;63.10
1704;DHT22;849;48.780;9.216;2024-03-29T01:13:44;11.00;62.00
1704;DHT22;849;48.780;9.216;2024-03-29T01:16:28;11.00;61.80
1704;DHT22;849;48.780;9.216;2024-03-29T01:19:12;11.00;66.80
1704;DHT22;849;48.780;9.216;2024-03-29T01:21:57;11.00;69.10
1704;DHT22;849;48.780;9.216;2024-03-29T01:24:41;11.00;69.60
1704;DHT22;849;48.780;9.216;2024-03-29T01:27:25;10.90;71.00
1704;DHT22;849;48.780;9.216;2024-03-29T01:30:09;10.90;71.30
1704;DHT22;849;48.780;9.216;2024-03-29T01:32:54;10.80;70.90
1704;DHT22;849;48.780;9.216;2024-03-29T01:35:38;10.80;71.90
1704;DHT22;849;48.780;9.216;2024-03-29T01:38:22;10.70;72.20
1704;DHT22;849;48.780;9.216;2024-03-29T01:41:07;10.60;72.80
1704;DHT22;849;48.780;9.216;2024-03-29T01:43:51;10.50;74.10
1704;DHT22;849;48.780;9.216;2024-03-29T01:46:36;10.40;73.70
1704;DHT22;849;48.780;9.216;2024-03-29T01:49:20;10.40;73.80
1704;DHT22;849;48.780;9.216;2024-03-29T01:52:04;10.40;73.90
1704;DHT22;849;48.780;9.216;2024-03-29T01:54:49;10.40;73.60
1704;DHT22;849;48.780;9.216;2024-03-29T01:57:33;10.30;74.40
1704;DHT22;849;48.780;9.216;2024-03-29T02:00:18;10.30;74.90
1704;DHT22;849;48.780;9.216;2024-03-29T02:03:02;10.40;75.00
1704;DHT22;849;48.780;9.216;2024-03-29T02:05:48;10.30;75.80
1704;DHT22;849;48.780;9.216;2024-03-29T02:08:33;10.30;75.80
1704;DHT22;849;48.780;9.216;2024-03-29T02:11:18;10.30;75.50
1704;DHT22;849;48.780;9.216;2024-03-29T02:14:03;10.30;75.50
1704;DHT22;849;48.780;9.216;2024-03-29T02:16:47;10.30;76.00
1704;DHT22;849;48.780;9.216;2024-03-29T02:19:31;10.30;76.40
1704;DHT22;849;48.780;9.216;2024-03-29T02:22:16;10.40;75.70
1704;DHT22;849;48.780;9.216;2024-03-29T02:25:01;10.40;76.00
1704;DHT22;849;48.780;9.216;2024-03-29T02:27:45;10.40;74.10
1704;DHT22;849;48.780;9.216;2024-03-29T02:30:29;10.40;74.40
1704;DHT22;849;48.780;9.216;2024-03-29T02:33:17;10.50;76.00
1704;DHT22;849;48.780;9.216;2024-03-29T02:36:01;10.50;75.40
1704;DHT22;849;48.780;9.216;2024-03-29T02:38:45;10.50;74.30
1704;DHT22;849;48.780;9.216;2024-03-29T02:41:29;10.60;74.00
1704;DHT22;849;48.780;9.216;2024-03-29T02:44:14;10.60;74.50
1704;DHT22;849;48.780;9.216;2024-03-29T02:46:59;10.60;72.50
1704;DHT22;849;48.780;9.216;2024-03-29T02:49:43;10.60;71.30
1704;DHT22;849;48.780;9.216;2024-03-29T02:52:28;10.60;72.60
1704;DHT22;849;48.780;9.216;2024-03-29T02:55:12;10.60;73.10
1704;DHT22;849;48.780;9.216;2024-03-29T02:57:57;10.60;74.40
1704;DHT22;849;48.780;9.216;2024-03-29T03:00:41;10.60;75.70
1704;DHT22;849;48.780;9.216;2024-03-29T03:03:26;10.60;74.90
1704;DHT22;849;48.780;9.216;2024-03-29T03:06:10;10.50;74.80
1704;DHT22;849;48.780;9.216;2024-03-29T03:08:54;10.50;74.20
1704;DHT22;849;48.780;9.216;2024-03-29T03:11:57;10.50;76.00
1704;DHT22;849;48.780;9.216;2024-03-29T03:14:42;10.50;76.70
1704;DHT22;849;48.780;9.216;2024-03-29T03:17:27;10.40;76.20
1704;DHT22;849;48.780;9.216;2024-03-29T03:20:11;10.60;74.50
1704;DHT22;849;48.780;9.216;2024-03-29T03:22:57;10.50;75.90
1704;DHT22;849;48.780;9.216;2024-03-29T03:25:41;10.50;76.30
1704;DHT22;849;48.780;9.216;2024-03-29T03:28:26;10.50;75.10
1704;DHT22;849;48.780;9.216;2024-03-29T03:31:10;10.50;73.70
1704;DHT22;849;48.780;9.216;2024-03-29T03:33:54;10.50;74.80
1704;DHT22;849;48.780;9.216;2024-03-29T03:36:38;10.40;74.30
1704;DHT22;849;48.780;9.216;2024-03-29T03:39:23;10.40;76.00
1704;DHT22;849;48.780;9.216;2024-03-29T03:42:07;10.50;73.80
1704;DHT22;849;48.780;9.216;2024-03-29T03:44:51;10.50;70.60
1704;DHT22;849;48.780;9.216;2024-03-29T03:47:35;10.60;73.30
1704;DHT22;849;48.780;9.216;2024-03-29T03:50:19;10.60;73.20
1704;DHT22;849;48.780;9.216;2024-03-29T03:53:03;10.60;73.40
1704;DHT22;849;48.780;9.216;2024-03-29T03:55:48;10.60;73.20
1704;DHT22;849;48.780;9.216;2024-03-29T03:58:32;10.60;72.30
1704;DHT22;849;48.780;9.216;2024-03-29T04:01:16;10.60;71.10
1704;DHT22;849;48.780;9.216;2024-03-29T04:04:00;10.70;70.60
1704;DHT22;849;48.780;9.216;2024-03-29T04:06:44;10.70;69.90
1704;DHT22;849;48.780;9.216;2024-03-29T04:09:28;10.70;69.60
1704;DHT22;849;48.780;9.216;2024-03-29T04:12:13;10.80;70.60
1704;DHT22;849;48.780;9.216;2024-03-29T04:14:57;10.80;70.70
1704;DHT22;849;48.780;9.216;2024-03-29T04:17:41;10.90;71.00
1704;DHT22;849;48.780;9.216;2024-03-29T04:20:25;10.90;70.00
1704;DHT22;849;48.780;9.216;2024-03-29T04:23:09;10.90;69.80
1704;DHT22;849;48.780;9.216;2024-03-29T04:25:57;11.00;69.40
1704;DHT22;849;48.780;9.216;2024-03-29T04:28:41;11.00;70.30
1704;DHT22;849;48.780;9.216;2024-03-29T04:31:26;11.00;70.50
1704;DHT22;849;48.780;9.216;2024-03-29T04:34:10;11.00;74.00
1704;DHT22;849;48.780;9.216;2024-03-29T04:36:54;11.00;73.60
1704;DHT22;849;48.780;9.216;2024-03-29T04:39:38;11.00;72.10
1704;DHT22;849;48.780;9.216;2024-03-29T04:42:22;11.00;71.40
1704;DHT22;849;48.780;9.216;2024-03-29T04:45:07;11.00;69.80
1704;DHT22;849;48.780;9.216;2024-03-29T04:47:51;11.00;68.50
1704;DHT22;849;48.780;9.216;2024-03-29T04:50:35;10.90;66.30
1704;DHT22;849;48.780;9.216;2024-03-29T04:53:19;10.80;66.10
1704;DHT22;849;48.780;9.216;2024-03-29T04:56:03;11.00;65.30
1704;DHT22;849;48.780;9.216;2024-03-29T04:58:48;11.00;67.90
1704;DHT22;849;48.780;9.216;2024-03-29T05:01:32;11.10;67.20
1704;DHT22;849;48.780;9.216;2024-03-29T05:04:19;11.10;65.80
1704;DHT22;849;48.780;9.216;2024-03-29T05:07:08;11.10;66.00
1704;DHT22;849;48.780;9.216;2024-03-29T05:09:53;11.20;65.90
1704;DHT22;849;48.780;9.216;2024-03-29T05:12:37;11.20;65.80
1704;DHT22;849;48.780;9.216;2024-03-29T05:15:21;11.30;67.80
1704;DHT22;849;48.780;9.216;2024-03-29T05:18:05;11.30;69.50
1704;DHT22;849;48.780;9.216;2024-03-29T05:20:50;11.40;72.00
1704;DHT22;849;48.780;9.216;2024-03-29T05:23:35;11.30;73.00
1704;DHT22;849;48.780;9.216;2024-03-29T05:26:19;11.30;74.00
1704;DHT22;849;48.780;9.216;2024-03-29T05:29:03;11.30;71.90
1704;DHT22;849;48.780;9.216;2024-03-29T05:31:48;11.30;70.20
1704;DHT22;849;48.780;9.216;2024-03-29T05:34:32;11.30;67.80
1704;DHT22;849;48.780;9.216;2024-03-29T05:37:16;11.30;67.80
1704;DHT22;849;48.780;9.216;2024-03-29T05:40:02;11.30;67.80
1704;DHT22;849;48.780;9.216;2024-03-29T05:42:48;11.40;67.20
1704;DHT22;849;48.780;9.216;2024-03-29T05:45:32;11.40;66.80
1704;DHT22;849;48.780;9.216;2024-03-29T05:48:16;11.50;69.20
1704;DHT22;849;48.780;9.216;2024-03-29T05:51:02;11.50;68.50
1704;DHT22;849;48.780;9.216;2024-03-29T05:53:46;11.50;68.40
1704;DHT22;849;48.780;9.216;2024-03-29T05:56:30;11.50;67.30
1704;DHT22;849;48.780;9.216;2024-03-29T05:59:15;11.60;68.70
1704;DHT22;849;48.780;9.216;2024-03-29T06:01:59;11.60;66.80
1704;DHT22;849;48.780;9.216;2024-03-29T06:04:43;11.70;70.00
1704;DHT22;849;48.780;9.216;2024-03-29T06:07:31;11.70;73.20
1704;DHT22;849;48.780;9.216;2024-03-29T06:10:17;11.70;68.90
1704;DHT22;849;48.780;9.216;2024-03-29T06:13:01;11.70;71.40
1704;DHT22;849;48.780;9.216;2024-03-29T06:15:51;11.80;71.80
1704;DHT22;849;48.780;9.216;2024-03-29T06:18:54;11.80;71.30
1704;DHT22;849;48.780;9.216;2024-03-29T06:21:38;11.80;72.50
1704;DHT22;849;48.780;9.216;2024-03-29T06:24:23;11.80;70.90
1704;DHT22;849;48.780;9.216;2024-03-29T06:27:07;11.80;67.90
1704;DHT22;849;48.780;9.216;2024-03-29T06:29:51;11.90;65.60
1704;DHT22;849;48.780;9.216;2024-03-29T06:32:36;11.90;65.10
1704;DHT22;849;48.780;9.216;2024-03-29T06:35:21;11.80;65.30
1704;DHT22;849;48.780;9.216;2024-03-29T06:38:06;11.90;64.60
1704;DHT22;849;48.780;9.216;2024-03-29T06:40:50;11.80;64.60
1704;DHT22;849;48.780;9.216;2024-03-29T06:43:34;11.70;64.80
1704;DHT22;849;48.780;9.216;2024-03-29T06:46:18;11.70;64.30
1704;DHT22;849;48.780;9.216;2024-03-29T06:49:03;11.70;64.30
1704;DHT22;849;48.780;9.216;2024-03-29T06:51:48;11.80;63.00
1704;DHT22;849;48.780;9.216;2024-03-29T06:54:32;12.00;64.20
1704;DHT22;849;48.780;9.216;2024-03-29T06:57:17;12.10;64.30
1704;DHT22;849;48.780;9.216;2024-03-29T07:00:04;12.20;65.70
1704;DHT22;849;48.780;9.216;2024-03-29T07:02:48;12.30;67.10
1704;DHT22;849;48.780;9.216;2024-03-29T07:05:33;12.40;66.60
1704;DHT22;849;48.780;9.216;2024-03-29T07:08:17;12.50;68.20
1704;DHT22;849;48.780;9.216;2024-03-29T07:11:01;12.50;69.60
1704;DHT22;849;48.780;9.216;2024-03-29T07:13:46;12.60;68.80
1704;DHT22;849;48.780;9.216;2024-03-29T07:16:30;12.70;68.40
1704;DHT22;849;48.780;9.216;2024-03-29T07:19:14;12.70;66.10
1704;DHT22;849;48.780;9.216;2024-03-29T07:22:00;12.70;64.20
1704;DHT22;849;48.780;9.216;2024-03-29T07:24:44;12.70;65.60
1704;DHT22;849;48.780;9.216;2024-03-29T07:27:28;12.70;69.00
1704;DHT22;849;48.780;9.216;2024-03-29T07:30:16;12.70;70.50
1704;DHT22;849;48.780;9.216;2024-03-29T07:33:00;12.70;73.00
1704;DHT22;849;48.780;9.216;2024-03-29T07:35:44;12.70;71.20
1704;DHT22;849;48.780;9.216;2024-03-29T07:38:29;12.70;76.70
1704;DHT22;849;48.780;9.216;2024-03-29T07:41:13;12.70;78.70
1704;DHT22;849;48.780;9.216;2024-03-29T07:43:58;12.60;86.30
1704;DHT22;849;48.780;9.216;2024-03-29T07:46:47;12.50;90.40
1704;DHT22;849;48.780;9.216;2024-03-29T07:49:31;12.30;93.60
1704;DHT22;849;48.780;9.216;2024-03-29T07:52:16;12.10;97.30
1704;DHT22;849;48.780;9.216;2024-03-29T07:55:00;11.80;99.90
1704;DHT22;849;48.780;9.216;2024-03-29T07:57:45;11.70;99.90
1704;DHT22;849;48.780;9.216;2024-03-29T08:00:33;11.70;99.90
1704;DHT22;849;48.780;9.216;2024-03-29T08:03:17;11.60;99.90
1704;DHT22;849;48.780;9.216;2024-03-29T08:06:02;11.60;99.90
1704;DHT22;849;48.780;9.216;2024-03-29T08:08:48;11.50;99.90
1704;DHT22;849;48.780;9.216;2024-03-29T08:11:32;11.40;99.90
1704;DHT22;849;48.780;9.216;2024-03-29T08:14:16;11.40;99.90
1704;DHT22;849;48.780;9.216;2024-03-29T08:17:00;11.50;99.90
1704;DHT22;849;48.780;9.216;2024-03-29T08:19:48;11.50;99.90
1704;DHT22;849;48.780;9.216;2024-03-29T08:22:33;11.50;99.90
1704;DHT22;849;48.780;9.216;2024-03-29T08:25:17;11.50;99.90
1704;DHT22;849;48.780;9.216;2024-03-29T08:28:01;11.50;99.90
1704;DHT22;849;48.780;9.216;2024-03-29T08:30:46;11.50;99.90
1704;DHT22;849;48.780;9.216;2024-03-29T08:33:31;11.50;99.90
1704;DHT22;849;48.780;9.216;2024-03-29T08:36:15;11.60;99.90
1704;DHT22;849;48.780;9.216;2024-03-29T08:39:00;11.40;99.90
1704;DHT22;849;48.780;9.216;2024-03-29T08:41:44;11.70;99.90
1704;DHT22;849;48.780;9.216;2024-03-29T08:44:28;11.80;99.90
1704;DHT22;849;48.780;9.216;2024-03-29T08:47:13;11.80;99.90
1704;DHT22;849;48.780;9.216;2024-03-29T08:49:57;11.80;99.90
1704;DHT22;849;48.780;9.216;2024-03-29T08:52:41;11.80;99.90
1704;DHT22;849;48.780;9.216;2024-03-29T08:55:25;11.80;99.90
1704;DHT22;849;48.780;9.216;2024-03-29T08:58:09;11.90;99.90
1704;DHT22;849;48.780;9.216;2024-03-29T09:00:54;11.90;99.90
1704;DHT22;849;48.780;9.216;2024-03-29T09:03:41;11.90;99.90
1704;DHT22;849;48.780;9.216;2024-03-29T09:06:25;11.90;99.90
1704;DHT22;849;48.780;9.216;2024-03-29T09:09:10;12.00;99.90
1704;DHT22;849;48.780;9.216;2024-03-29T09:11:54;12.00;99.90
1704;DHT22;849;48.780;9.216;2024-03-29T09:14:38;12.00;99.90
1704;DHT22;849;48.780;9.216;2024-03-29T09:17:22;12.00;99.90
1704;DHT22;849;48.780;9.216;2024-03-29T09:20:08;12.00;99.90
1704;DHT22;849;48.780;9.216;2024-03-29T09:22:52;11.60;99.90
1704;DHT22;849;48.780;9.216;2024-03-29T09:25:40;11.80;99.90
1704;DHT22;849;48.780;9.216;2024-03-29T09:28:24;11.90;99.90
1704;DHT22;849;48.780;9.216;2024-03-29T09:31:08;12.00;99.90
1704;DHT22;849;48.780;9.216;2024-03-29T09:33:53;12.00;99.90
1704;DHT22;849;48.780;9.216;2024-03-29T09:36:41;12.00;99.90
1704;DHT22;849;48.780;9.216;2024-03-29T09:39:25;12.00;99.90
1704;DHT22;849;48.780;9.216;2024-03-29T09:42:09;12.00;99.90
1704;DHT22;849;48.780;9.216;2024-03-29T09:44:58;12.00;99.90
1704;DHT22;849;48.780;9.216;2024-03-29T09:47:42;12.10;99.90
1704;DHT22;849;48.780;9.216;2024-03-29T09:50:27;12.10;99.90
1704;DHT22;849;48.780;9.216;2024-03-29T09:53:11;12.20;99.90
1704;DHT22;849;48.780;9.216;2024-03-29T09:55:55;12.10;99.90
1704;DHT22;849;48.780;9.216;2024-03-29T09:58:39;12.00;99.90
1704;DHT22;849;48.780;9.216;2024-03-29T10:01:23;12.00;99.90
1704;DHT22;849;48.780;9.216;2024-03-29T10:04:08;12.30;99.90
1704;DHT22;849;48.780;9.216;2024-03-29T10:06:52;12.10;99.90
1704;DHT22;849;48.780;9.216;2024-03-29T10:09:37;12.10;99.90
1704;DHT22;849;48.780;9.216;2024-03-29T10:12:21;12.20;99.90
1704;DHT22;849;48.780;9.216;2024-03-29T10:15:06;12.20;99.90
1704;DHT22;849;48.780;9.216;2024-03-29T10:17:54;12.20;99.90
1704;DHT22;849;48.780;9.216;2024-03-29T10:20:38;12.30;99.90
1704;DHT22;849;48.780;9.216;2024-03-29T10:23:22;12.40;99.90
1704;DHT22;849;48.780;9.216;2024-03-29T10:26:09;12.50;99.90
1704;DHT22;849;48.780;9.216;2024-03-29T10:28:54;12.60;99.90
1704;DHT22;849;48.780;9.216;2024-03-29T10:31:38;12.70;99.90
1704;DHT22;849;48.780;9.216;2024-03-29T10:34:24;12.80;99.90
1704;DHT22;849;48.780;9.216;2024-03-29T10:37:08;13.20;99.90
1704;DHT22;849;48.780;9.216;2024-03-29T10:39:52;13.00;99.90
1704;DHT22;849;48.780;9.216;2024-03-29T10:42:43;13.00;99.90
1704;DHT22;849;48.780;9.216;2024-03-29T10:45:28;13.10;99.90
1704;DHT22;849;48.780;9.216;2024-03-29T10:48:14;13.20;99.90
1704;DHT22;849;48.780;9.216;2024-03-29T10:50:59;13.30;99.90
1704;DHT22;849;48.780;9.216;2024-03-29T10:53:43;13.40;99.90
1704;DHT22;849;48.780;9.216;2024-03-29T10:56:28;13.40;99.90
1704;DHT22;849;48.780;9.216;2024-03-29T11:02:49;13.60;99.90
1704;DHT22;849;48.780;9.216;2024-03-29T11:05:35;13.70;99.90
1704;DHT22;849;48.780;9.216;2024-03-29T11:08:22;13.70;99.90
1704;DHT22;849;48.780;9.216;2024-03-29T11:11:09;13.80;99.90
1704;DHT22;849;48.780;9.216;2024-03-29T11:14:02;13.90;99.90
1704;DHT22;849;48.780;9.216;2024-03-29T11:16:47;13.90;99.90
1704;DHT22;849;48.780;9.216;2024-03-29T11:19:32;13.90;99.90
1704;DHT22;849;48.780;9.216;2024-03-29T11:22:17;14.00;99.90
1704;DHT22;849;48.780;9.216;2024-03-29T11:25:01;14.00;99.90
1704;DHT22;849;48.780;9.216;2024-03-29T11:27:47;14.00;99.90
1704;DHT22;849;48.780;9.216;2024-03-29T11:30:32;14.10;99.90
1704;DHT22;849;48.780;9.216;2024-03-29T11:33:28;14.00;99.90
1704;DHT22;849;48.780;9.216;2024-03-29T11:36:16;14.00;99.90
1704;DHT22;849;48.780;9.216;2024-03-29T11:39:00;14.10;99.90
1704;DHT22;849;48.780;9.216;2024-03-29T11:41:49;14.10;99.90
1704;DHT22;849;48.780;9.216;2024-03-29T11:44:33;14.10;99.90
1704;DHT22;849;48.780;9.216;2024-03-29T11:47:19;14.20;99.90
1704;DHT22;849;48.780;9.216;2024-03-29T11:50:03;14.20;99.90
1704;DHT22;849;48.780;9.216;2024-03-29T11:52:48;14.20;99.90
1704;DHT22;849;48.780;9.216;2024-03-29T11:55:32;14.30;99.90
1704;DHT22;849;48.780;9.216;2024-03-29T11:58:18;14.30;99.90
1704;DHT22;849;48.780;9.216;2024-03-29T12:01:02;14.30;99.90
1704;DHT22;849;48.780;9.216;2024-03-29T12:03:47;14.30;99.90
1704;DHT22;849;48.780;9.216;2024-03-29T12:06:33;14.30;99.90
1704;DHT22;849;48.780;9.216;2024-03-29T12:09:17;14.20;99.90
1704;DHT22;849;48.780;9.216;2024-03-29T12:12:04;14.20;99.90
1704;DHT22;849;48.780;9.216;2024-03-29T12:14:49;14.30;99.90
1704;DHT22;849;48.780;9.216;2024-03-29T12:17:34;14.30;99.90
1704;DHT22;849;48.780;9.216;2024-03-29T12:20:18;14.30;99.90
1704;DHT22;849;48.780;9.216;2024-03-29T12:23:06;14.40;99.90
1704;DHT22;849;48.780;9.216;2024-03-29T12:25:54;14.50;99.90
1704;DHT22;849;48.780;9.216;2024-03-29T12:28:42;14.60;99.90
1704;DHT22;849;48.780;9.216;2024-03-29T12:31:26;14.60;99.90
1704;DHT22;849;48.780;9.216;2024-03-29T12:34:10;14.70;99.90
1704;DHT22;849;48.780;9.216;2024-03-29T12:36:54;14.90;99.90
1704;DHT22;849;48.780;9.216;2024-03-29T12:39:41;14.90;99.90
1704;DHT22;849;48.780;9.216;2024-03-29T12:42:26;15.00;99.90
1704;DHT22;849;48.780;9.216;2024-03-29T12:45:11;15.10;99.90
1704;DHT22;849;48.780;9.216;2024-03-29T12:47:55;15.10;99.90
1704;DHT22;849;48.780;9.216;2024-03-29T12:50:41;15.30;99.90
1704;DHT22;849;48.780;9.216;2024-03-29T12:53:28;15.30;99.90
1704;DHT22;849;48.780;9.216;2024-03-29T12:56:12;15.40;99.90
1704;DHT22;849;48.780;9.216;2024-03-29T12:58:56;15.50;99.90
1704;DHT22;849;48.780;9.216;2024-03-29T13:01:40;15.50;99.90
1704;DHT22;849;48.780;9.216;2024-03-29T13:04:25;15.50;99.90
1704;DHT22;849;48.780;9.216;2024-03-29T13:07:09;15.60;99.90
1704;DHT22;849;48.780;9.216;2024-03-29T13:09:54;15.70;99.90
1704;DHT22;849;48.780;9.216;2024-03-29T13:12:39;15.70;99.90
1704;DHT22;849;48.780;9.216;2024-03-29T13:15:26;15.70;99.90
1704;DHT22;849;48.780;9.216;2024-03-29T13:18:10;15.80;99.90
1704;DHT22;849;48.780;9.216;2024-03-29T13:20:56;16.00;99.90
1704;DHT22;849;48.780;9.216;2024-03-29T13:23:43;16.10;99.90
1704;DHT22;849;48.780;9.216;2024-03-29T13:26:27;16.10;99.90
1704;DHT22;849;48.780;9.216;2024-03-29T13:29:13;16.20;99.90
1704;DHT22;849;48.780;9.216;2024-03-29T13:31:59;16.30;99.90
1704;DHT22;849;48.780;9.216;2024-03-29T13:34:43;16.30;99.90
1704;DHT22;849;48.780;9.216;2024-03-29T13:37:27;16.30;99.90
1704;DHT22;849;48.780;9.216;2024-03-29T13:40:11;16.30;99.90
1704;DHT22;849;48.780;9.216;2024-03-29T13:42:55;16.40;99.90
1704;DHT22;849;48.780;9.216;2024-03-29T13:45:39;16.40;99.90
1704;DHT22;849;48.780;9.216;2024-03-29T13:48:23;16.40;99.90
1704;DHT22;849;48.780;9.216;2024-03-29T13:51:07;16.50;99.90
1704;DHT22;849;48.780;9.216;2024-03-29T13:53:52;16.50;99.90
1704;DHT22;849;48.780;9.216;2024-03-29T13:56:38;16.60;99.90
1704;DHT22;849;48.780;9.216;2024-03-29T13:59:22;16.70;99.90
1704;DHT22;849;48.780;9.216;2024-03-29T14:02:06;16.70;99.90
1704;DHT22;849;48.780;9.216;2024-03-29T14:04:49;16.80;99.90
1704;DHT22;849;48.780;9.216;2024-03-29T14:07:33;16.90;99.90
1704;DHT22;849;48.780;9.216;2024-03-29T14:10:18;17.00;99.90
1704;DHT22;849;48.780;9.216;2024-03-29T14:13:03;17.10;99.90
1704;DHT22;849;48.780;9.216;2024-03-29T14:15:48;17.10;99.90
1704;DHT22;849;48.780;9.216;2024-03-29T14:18:33;17.20;99.90
1704;DHT22;849;48.780;9.216;2024-03-29T14:21:21;17.30;99.90
1704;DHT22;849;48.780;9.216;2024-03-29T14:24:05;17.30;99.60
1704;DHT22;849;48.780;9.216;2024-03-29T14:26:49;17.30;98.90
1704;DHT22;849;48.780;9.216;2024-03-29T14:29:34;17.40;98.40
1704;DHT22;849;48.780;9.216;2024-03-29T14:32:21;17.50;97.50
1704;DHT22;849;48.780;9.216;2024-03-29T14:35:05;17.50;95.70
1704;DHT22;849;48.780;9.216;2024-03-29T14:37:49;17.60;96.10
1704;DHT22;849;48.780;9.216;2024-03-29T14:40:33;17.60;93.60
1704;DHT22;849;48.780;9.216;2024-03-29T14:43:18;17.60;94.00
1704;DHT22;849;48.780;9.216;2024-03-29T14:46:02;17.80;94.50
1704;DHT22;849;48.780;9.216;2024-03-29T14:48:47;17.90;93.20
1704;DHT22;849;48.780;9.216;2024-03-29T14:51:35;18.10;93.70
1704;DHT22;849;48.780;9.216;2024-03-29T14:54:19;18.40;93.00
1704;DHT22;849;48.780;9.216;2024-03-29T14:57:04;18.50;92.60
1704;DHT22;849;48.780;9.216;2024-03-29T14:59:48;18.70;93.40
1704;DHT22;849;48.780;9.216;2024-03-29T15:02:33;18.70;91.90
1704;DHT22;849;48.780;9.216;2024-03-29T15:05:18;18.80;90.40
1704;DHT22;849;48.780;9.216;2024-03-29T15:08:02;18.80;86.10
1704;DHT22;849;48.780;9.216;2024-03-29T15:10:46;18.70;87.20
1704;DHT22;849;48.780;9.216;2024-03-29T15:13:30;18.70;86.20
1704;DHT22;849;48.780;9.216;2024-03-29T15:16:15;18.80;86.70
1704;DHT22;849;48.780;9.216;2024-03-29T15:18:59;18.80;86.80
1704;DHT22;849;48.780;9.216;2024-03-29T15:21:43;18.70;86.00
1704;DHT22;849;48.780;9.216;2024-03-29T15:24:27;18.70;84.80
1704;DHT22;849;48.780;9.216;2024-03-29T15:27:11;18.80;84.50
1704;DHT22;849;48.780;9.216;2024-03-29T15:30:15;18.70;83.90
1704;DHT22;849;48.780;9.216;2024-03-29T15:32:59;18.70;81.60
1704;DHT22;849;48.780;9.216;2024-03-29T15:35:43;18.80;82.20
1704;DHT22;849;48.780;9.216;2024-03-29T15:38:27;18.80;82.50
1704;DHT22;849;48.780;9.216;2024-03-29T15:41:13;18.80;84.50
1704;DHT22;849;48.780;9.216;2024-03-29T15:43:58;18.80;83.70
1704;DHT22;849;48.780;9.216;2024-03-29T15:46:43;18.90;83.90
1704;DHT22;849;48.780;9.216;2024-03-29T15:49:28;19.00;85.00
1704;DHT22;849;48.780;9.216;2024-03-29T15:52:12;19.10;82.90
1704;DHT22;849;48.780;9.216;2024-03-29T15:54:56;19.30;83.30
1704;DHT22;849;48.780;9.216;2024-03-29T15:57:40;19.50;84.60
1704;DHT22;849;48.780;9.216;2024-03-29T16:00:25;19.70;82.20
1704;DHT22;849;48.780;9.216;2024-03-29T16:03:14;19.80;82.70
1704;DHT22;849;48.780;9.216;2024-03-29T16:05:59;19.80;81.80
1704;DHT22;849;48.780;9.216;2024-03-29T16:08:43;19.80;81.60
1704;DHT22;849;48.780;9.216;2024-03-29T16:11:34;19.70;80.70
1704;DHT22;849;48.780;9.216;2024-03-29T16:14:20;19.60;80.50
1704;DHT22;849;48.780;9.216;2024-03-29T16:17:06;19.70;80.40
1704;DHT22;849;48.780;9.216;2024-03-29T16:19:50;19.70;80.50
1704;DHT22;849;48.780;9.216;2024-03-29T16:22:34;19.60;79.10
1704;DHT22;849;48.780;9.216;2024-03-29T16:25:18;19.40;79.40
1704;DHT22;849;48.780;9.216;2024-03-29T16:28:03;19.30;80.60
1704;DHT22;849;48.780;9.216;2024-03-29T16:30:48;19.20;80.90
1704;DHT22;849;48.780;9.216;2024-03-29T16:33:33;18.90;80.20
1704;DHT22;849;48.780;9.216;2024-03-29T16:36:23;18.80;80.30
1704;DHT22;849;48.780;9.216;2024-03-29T16:39:07;18.70;81.80
1704;DHT22;849;48.780;9.216;2024-03-29T16:41:51;18.50;83.80
1704;DHT22;849;48.780;9.216;2024-03-29T16:44:35;18.30;85.10
1704;DHT22;849;48.780;9.216;2024-03-29T16:47:19;18.30;87.30
1704;DHT22;849;48.780;9.216;2024-03-29T16:50:03;18.20;88.40
1704;DHT22;849;48.780;9.216;2024-03-29T16:52:49;18.10;90.00
1704;DHT22;849;48.780;9.216;2024-03-29T16:55:33;18.00;90.30
1704;DHT22;849;48.780;9.216;2024-03-29T16:58:19;17.90;90.80
1704;DHT22;849;48.780;9.216;2024-03-29T17:01:03;17.80;91.10
1704;DHT22;849;48.780;9.216;2024-03-29T17:03:47;17.70;91.50
1704;DHT22;849;48.780;9.216;2024-03-29T17:06:31;17.80;91.90
1704;DHT22;849;48.780;9.216;2024-03-29T17:09:34;17.60;92.30
1704;DHT22;849;48.780;9.216;2024-03-29T17:12:19;17.60;93.60
1704;DHT22;849;48.780;9.216;2024-03-29T17:15:04;17.90;94.30
1704;DHT22;849;48.780;9.216;2024-03-29T17:17:49;17.40;95.10
1704;DHT22;849;48.780;9.216;2024-03-29T17:20:32;17.30;96.90
1704;DHT22;849;48.780;9.216;2024-03-29T17:23:16;17.30;97.30
1704;DHT22;849;48.780;9.216;2024-03-29T17:26:00;17.10;99.40
1704;DHT22;849;48.780;9.216;2024-03-29T17:28:44;17.00;99.90
1704;DHT22;849;48.780;9.216;2024-03-29T17:31:28;16.90;99.90
1704;DHT22;849;48.780;9.216;2024-03-29T17:34:12;16.80;99.90
1704;DHT22;849;48.780;9.216;2024-03-29T17:36:56;16.70;99.90
1704;DHT22;849;48.780;9.216;2024-03-29T17:39:41;16.70;99.90
1704;DHT22;849;48.780;9.216;2024-03-29T17:42:25;16.60;99.90
1704;DHT22;849;48.780;9.216;2024-03-29T17:45:09;16.50;99.90
1704;DHT22;849;48.780;9.216;2024-03-29T17:47:53;16.40;99.90
1704;DHT22;849;48.780;9.216;2024-03-29T17:50:37;16.40;99.90
1704;DHT22;849;48.780;9.216;2024-03-29T17:53:21;16.30;99.90
1704;DHT22;849;48.780;9.216;2024-03-29T17:56:05;16.20;99.90
1704;DHT22;849;48.780;9.216;2024-03-29T17:58:49;16.20;99.90
1704;DHT22;849;48.780;9.216;2024-03-29T18:01:33;16.10;99.90
1704;DHT22;849;48.780;9.216;2024-03-29T18:04:17;16.00;99.90
1704;DHT22;849;48.780;9.216;2024-03-29T18:07:02;16.00;99.90
1704;DHT22;849;48.780;9.216;2024-03-29T18:09:46;15.90;99.90
1704;DHT22;849;48.780;9.216;2024-03-29T18:12:30;15.80;99.90
1704;DHT22;849;48.780;9.216;2024-03-29T18:15:14;15.60;99.90
1704;DHT22;849;48.780;9.216;2024-03-29T18:18:00;15.50;99.90